sensor_id;sensor_type;location;lat;lon;timestamp;P1;durP1;ratioP1;P2;durP2;ratioP2
60060;SDS011;45933;51.336;12.612;2023-09-19T00:01:45;3.05;;;1.58;;
60060;SDS011;45933;51.336;12.612;2023-09-19T00:04:11;4.72;;;2.15;;
60060;SDS011;45933;51.336;12.612;2023-09-19T00:06:37;4.80;;;1.73;;
60060;SDS011;45933;51.336;12.612;2023-09-19T00:09:03;3.47;;;1.67;;
60060;SDS011;45933;51.336;12.612;2023-09-19T00:11:28;4.10;;;1.77;;
60060;SDS011;45933;51.336;12.612;2023-09-19T00:13:54;3.83;;;1.90;;
60060;SDS011;45933;51.336;12.612;2023-09-19T00:16:19;3.72;;;1.90;;
60060;SDS011;45933;51.336;12.612;2023-09-19T00:18:45;1.95;;;1.30;;
60060;SDS011;45933;51.336;12.612;2023-09-19T00:21:10;2.17;;;1.70;;
60060;SDS011;45933;51.336;12.612;2023-09-19T00:23:36;3.40;;;1.60;;
60060;SDS011;45933;51.336;12.612;2023-09-19T00:26:01;2.38;;;1.52;;
60060;SDS011;45933;51.336;12.612;2023-09-19T00:28:27;4.43;;;1.60;;
60060;SDS011;45933;51.336;12.612;2023-09-19T00:30:52;3.58;;;1.55;;
60060;SDS011;45933;51.336;12.612;2023-09-19T00:33:19;5.75;;;1.70;;
60060;SDS011;45933;51.336;12.612;2023-09-19T00:35:48;3.55;;;1.60;;
60060;SDS011;45933;51.336;12.612;2023-09-19T00:38:14;3.10;;;1.80;;
60060;SDS011;45933;51.336;12.612;2023-09-19T00:40:45;3.60;;;2.05;;
60060;SDS011;45933;51.336;12.612;2023-09-19T00:43:11;3.55;;;1.60;;
60060;SDS011;45933;51.336;12.612;2023-09-19T00:45:36;2.40;;;1.63;;
60060;SDS011;45933;51.336;12.612;2023-09-19T00:48:03;2.42;;;2.00;;
60060;SDS011;45933;51.336;12.612;2023-09-19T00:50:36;2.03;;;1.77;;
60060;SDS011;45933;51.336;12.612;2023-09-19T00:53:04;4.90;;;1.75;;
60060;SDS011;45933;51.336;12.612;2023-09-19T00:55:33;4.85;;;1.92;;
60060;SDS011;45933;51.336;12.612;2023-09-19T00:57:59;3.15;;;1.98;;
60060;SDS011;45933;51.336;12.612;2023-09-19T01:00:25;4.15;;;2.10;;
60060;SDS011;45933;51.336;12.612;2023-09-19T01:02:50;3.50;;;2.20;;
60060;SDS011;45933;51.336;12.612;2023-09-19T01:05:16;3.28;;;1.73;;
60060;SDS011;45933;51.336;12.612;2023-09-19T01:07:42;2.03;;;1.80;;
60060;SDS011;45933;51.336;12.612;2023-09-19T01:10:10;5.65;;;2.00;;
60060;SDS011;45933;51.336;12.612;2023-09-19T01:12:54;3.20;;;1.60;;
60060;SDS011;45933;51.336;12.612;2023-09-19T01:27:17;2.35;;;1.58;;
60060;SDS011;45933;51.336;12.612;2023-09-19T01:30:09;2.08;;;1.60;;
60060;SDS011;45933;51.336;12.612;2023-09-19T01:32:36;2.83;;;1.70;;
60060;SDS011;45933;51.336;12.612;2023-09-19T01:35:04;3.35;;;1.50;;
60060;SDS011;45933;51.336;12.612;2023-09-19T01:37:29;2.45;;;1.92;;
60060;SDS011;45933;51.336;12.612;2023-09-19T01:40:03;2.15;;;1.60;;
60060;SDS011;45933;51.336;12.612;2023-09-19T01:45:26;2.58;;;1.67;;
60060;SDS011;45933;51.336;12.612;2023-09-19T01:47:56;3.60;;;1.70;;
60060;SDS011;45933;51.336;12.612;2023-09-19T01:50:32;4.38;;;1.42;;
60060;SDS011;45933;51.336;12.612;2023-09-19T01:55:55;2.60;;;1.42;;
60060;SDS011;45933;51.336;12.612;2023-09-19T02:01:07;2.45;;;1.63;;
60060;SDS011;45933;51.336;12.612;2023-09-19T02:03:36;3.13;;;1.35;;
60060;SDS011;45933;51.336;12.612;2023-09-19T02:06:02;3.40;;;1.50;;
60060;SDS011;45933;51.336;12.612;2023-09-19T02:08:30;2.63;;;1.48;;
60060;SDS011;45933;51.336;12.612;2023-09-19T02:10:58;2.53;;;1.67;;
60060;SDS011;45933;51.336;12.612;2023-09-19T02:13:24;2.15;;;1.40;;
60060;SDS011;45933;51.336;12.612;2023-09-19T02:15:52;6.35;;;1.80;;
60060;SDS011;45933;51.336;12.612;2023-09-19T02:18:18;3.55;;;2.10;;
60060;SDS011;45933;51.336;12.612;2023-09-19T02:20:43;3.47;;;1.50;;
60060;SDS011;45933;51.336;12.612;2023-09-19T02:23:09;3.35;;;1.50;;
60060;SDS011;45933;51.336;12.612;2023-09-19T02:25:35;2.05;;;1.67;;
60060;SDS011;45933;51.336;12.612;2023-09-19T02:28:01;2.03;;;1.35;;
60060;SDS011;45933;51.336;12.612;2023-09-19T02:30:28;3.53;;;1.63;;
60060;SDS011;45933;51.336;12.612;2023-09-19T02:32:53;2.70;;;1.85;;
60060;SDS011;45933;51.336;12.612;2023-09-19T02:35:19;3.05;;;1.65;;
60060;SDS011;45933;51.336;12.612;2023-09-19T02:37:45;3.20;;;1.17;;
60060;SDS011;45933;51.336;12.612;2023-09-19T02:40:10;3.08;;;1.50;;
60060;SDS011;45933;51.336;12.612;2023-09-19T02:42:44;3.15;;;1.73;;
60060;SDS011;45933;51.336;12.612;2023-09-19T02:45:15;1.77;;;1.63;;
60060;SDS011;45933;51.336;12.612;2023-09-19T02:47:43;2.42;;;1.90;;
60060;SDS011;45933;51.336;12.612;2023-09-19T02:50:09;1.90;;;1.48;;
60060;SDS011;45933;51.336;12.612;2023-09-19T02:52:36;2.58;;;1.60;;
60060;SDS011;45933;51.336;12.612;2023-09-19T02:55:01;6.28;;;1.95;;
60060;SDS011;45933;51.336;12.612;2023-09-19T02:57:28;6.53;;;2.47;;
60060;SDS011;45933;51.336;12.612;2023-09-19T02:59:54;3.88;;;1.65;;
60060;SDS011;45933;51.336;12.612;2023-09-19T03:02:19;2.22;;;1.50;;
60060;SDS011;45933;51.336;12.612;2023-09-19T03:04:45;2.38;;;1.60;;
60060;SDS011;45933;51.336;12.612;2023-09-19T03:07:12;3.80;;;1.70;;
60060;SDS011;45933;51.336;12.612;2023-09-19T03:09:37;2.60;;;1.58;;
60060;SDS011;45933;51.336;12.612;2023-09-19T03:12:02;1.70;;;1.40;;
60060;SDS011;45933;51.336;12.612;2023-09-19T03:14:29;5.13;;;1.23;;
60060;SDS011;45933;51.336;12.612;2023-09-19T03:17:00;1.60;;;1.23;;
60060;SDS011;45933;51.336;12.612;2023-09-19T03:19:25;2.00;;;1.50;;
60060;SDS011;45933;51.336;12.612;2023-09-19T03:21:51;1.45;;;1.35;;
60060;SDS011;45933;51.336;12.612;2023-09-19T03:24:16;2.42;;;1.17;;
60060;SDS011;45933;51.336;12.612;2023-09-19T03:26:42;3.17;;;1.35;;
60060;SDS011;45933;51.336;12.612;2023-09-19T03:29:07;3.80;;;1.55;;
60060;SDS011;45933;51.336;12.612;2023-09-19T03:31:33;2.90;;;1.40;;
60060;SDS011;45933;51.336;12.612;2023-09-19T03:34:01;3.42;;;1.23;;
60060;SDS011;45933;51.336;12.612;2023-09-19T03:36:28;5.13;;;1.60;;
60060;SDS011;45933;51.336;12.612;2023-09-19T03:38:54;2.08;;;1.23;;
60060;SDS011;45933;51.336;12.612;2023-09-19T03:41:19;5.35;;;1.75;;
60060;SDS011;45933;51.336;12.612;2023-09-19T03:43:45;3.72;;;1.38;;
60060;SDS011;45933;51.336;12.612;2023-09-19T03:46:10;4.00;;;1.15;;
60060;SDS011;45933;51.336;12.612;2023-09-19T03:48:37;3.45;;;1.20;;
60060;SDS011;45933;51.336;12.612;2023-09-19T03:51:03;1.52;;;1.17;;
60060;SDS011;45933;51.336;12.612;2023-09-19T03:53:28;1.63;;;1.23;;
60060;SDS011;45933;51.336;12.612;2023-09-19T03:55:53;4.70;;;1.40;;
60060;SDS011;45933;51.336;12.612;2023-09-19T03:58:19;1.95;;;1.23;;
60060;SDS011;45933;51.336;12.612;2023-09-19T04:00:45;1.88;;;1.45;;
60060;SDS011;45933;51.336;12.612;2023-09-19T04:03:11;1.92;;;1.27;;
60060;SDS011;45933;51.336;12.612;2023-09-19T04:05:44;1.75;;;1.13;;
60060;SDS011;45933;51.336;12.612;2023-09-19T04:08:09;2.25;;;1.20;;
60060;SDS011;45933;51.336;12.612;2023-09-19T04:10:35;3.55;;;1.27;;
60060;SDS011;45933;51.336;12.612;2023-09-19T04:13:00;5.15;;;1.25;;
60060;SDS011;45933;51.336;12.612;2023-09-19T04:15:26;3.13;;;1.35;;
60060;SDS011;45933;51.336;12.612;2023-09-19T04:17:51;3.08;;;1.15;;
60060;SDS011;45933;51.336;12.612;2023-09-19T04:20:17;2.95;;;1.00;;
60060;SDS011;45933;51.336;12.612;2023-09-19T04:22:44;1.92;;;1.23;;
60060;SDS011;45933;51.336;12.612;2023-09-19T04:25:10;4.25;;;1.73;;
60060;SDS011;45933;51.336;12.612;2023-09-19T04:27:35;2.20;;;1.52;;
60060;SDS011;45933;51.336;12.612;2023-09-19T04:30:00;1.52;;;1.10;;
60060;SDS011;45933;51.336;12.612;2023-09-19T04:32:34;1.67;;;1.20;;
60060;SDS011;45933;51.336;12.612;2023-09-19T04:35:01;2.15;;;1.00;;
60060;SDS011;45933;51.336;12.612;2023-09-19T04:37:30;2.38;;;1.30;;
60060;SDS011;45933;51.336;12.612;2023-09-19T04:39:55;1.15;;;1.00;;
60060;SDS011;45933;51.336;12.612;2023-09-19T04:42:20;3.03;;;1.08;;
60060;SDS011;45933;51.336;12.612;2023-09-19T04:44:46;3.05;;;1.30;;
60060;SDS011;45933;51.336;12.612;2023-09-19T04:47:14;1.88;;;1.10;;
60060;SDS011;45933;51.336;12.612;2023-09-19T04:49:41;3.13;;;1.10;;
60060;SDS011;45933;51.336;12.612;2023-09-19T04:52:06;2.58;;;1.30;;
60060;SDS011;45933;51.336;12.612;2023-09-19T04:54:31;1.50;;;1.15;;
60060;SDS011;45933;51.336;12.612;2023-09-19T04:56:58;2.15;;;1.20;;
60060;SDS011;45933;51.336;12.612;2023-09-19T04:59:24;3.05;;;1.58;;
60060;SDS011;45933;51.336;12.612;2023-09-19T05:01:49;2.17;;;1.38;;
60060;SDS011;45933;51.336;12.612;2023-09-19T05:04:14;1.55;;;1.45;;
60060;SDS011;45933;51.336;12.612;2023-09-19T05:06:40;3.35;;;1.70;;
60060;SDS011;45933;51.336;12.612;2023-09-19T05:09:05;2.03;;;1.48;;
60060;SDS011;45933;51.336;12.612;2023-09-19T05:11:31;4.32;;;1.60;;
60060;SDS011;45933;51.336;12.612;2023-09-19T05:13:56;2.78;;;1.52;;
60060;SDS011;45933;51.336;12.612;2023-09-19T05:16:22;3.10;;;1.50;;
60060;SDS011;45933;51.336;12.612;2023-09-19T05:18:47;5.05;;;1.45;;
60060;SDS011;45933;51.336;12.612;2023-09-19T05:21:13;4.47;;;1.50;;
60060;SDS011;45933;51.336;12.612;2023-09-19T05:23:38;2.67;;;1.40;;
60060;SDS011;45933;51.336;12.612;2023-09-19T05:26:03;1.83;;;1.23;;
60060;SDS011;45933;51.336;12.612;2023-09-19T05:28:30;1.23;;;1.10;;
60060;SDS011;45933;51.336;12.612;2023-09-19T05:30:55;3.13;;;1.25;;
60060;SDS011;45933;51.336;12.612;2023-09-19T05:33:20;5.00;;;3.72;;
60060;SDS011;45933;51.336;12.612;2023-09-19T05:35:47;6.30;;;2.95;;
60060;SDS011;45933;51.336;12.612;2023-09-19T05:38:13;4.18;;;2.10;;
60060;SDS011;45933;51.336;12.612;2023-09-19T05:40:39;5.13;;;2.47;;
60060;SDS011;45933;51.336;12.612;2023-09-19T05:43:10;3.80;;;2.17;;
60060;SDS011;45933;51.336;12.612;2023-09-19T05:45:35;3.40;;;2.33;;
60060;SDS011;45933;51.336;12.612;2023-09-19T05:48:08;7.93;;;3.60;;
60060;SDS011;45933;51.336;12.612;2023-09-19T05:50:35;6.60;;;3.13;;
60060;SDS011;45933;51.336;12.612;2023-09-19T05:53:01;7.57;;;2.97;;
60060;SDS011;45933;51.336;12.612;2023-09-19T05:55:26;6.50;;;3.53;;
60060;SDS011;45933;51.336;12.612;2023-09-19T05:57:53;6.88;;;2.70;;
60060;SDS011;45933;51.336;12.612;2023-09-19T06:00:19;3.78;;;2.83;;
60060;SDS011;45933;51.336;12.612;2023-09-19T06:02:50;3.35;;;2.35;;
60060;SDS011;45933;51.336;12.612;2023-09-19T06:05:17;2.55;;;1.92;;
60060;SDS011;45933;51.336;12.612;2023-09-19T06:07:42;3.13;;;1.70;;
60060;SDS011;45933;51.336;12.612;2023-09-19T06:10:07;2.78;;;1.75;;
60060;SDS011;45933;51.336;12.612;2023-09-19T06:12:38;4.82;;;1.50;;
60060;SDS011;45933;51.336;12.612;2023-09-19T06:15:04;6.57;;;1.65;;
60060;SDS011;45933;51.336;12.612;2023-09-19T06:17:40;2.63;;;1.80;;
60060;SDS011;45933;51.336;12.612;2023-09-19T06:20:11;2.72;;;1.20;;
60060;SDS011;45933;51.336;12.612;2023-09-19T06:22:40;3.47;;;1.30;;
60060;SDS011;45933;51.336;12.612;2023-09-19T06:25:10;8.32;;;1.38;;
60060;SDS011;45933;51.336;12.612;2023-09-19T06:27:40;2.00;;;1.20;;
60060;SDS011;45933;51.336;12.612;2023-09-19T06:30:09;2.25;;;1.33;;
60060;SDS011;45933;51.336;12.612;2023-09-19T06:32:36;3.42;;;1.60;;
60060;SDS011;45933;51.336;12.612;2023-09-19T06:35:01;3.70;;;1.50;;
60060;SDS011;45933;51.336;12.612;2023-09-19T06:37:32;1.80;;;1.27;;
60060;SDS011;45933;51.336;12.612;2023-09-19T06:39:59;3.60;;;1.25;;
60060;SDS011;45933;51.336;12.612;2023-09-19T06:42:24;2.90;;;1.15;;
60060;SDS011;45933;51.336;12.612;2023-09-19T06:44:50;2.03;;;1.10;;
60060;SDS011;45933;51.336;12.612;2023-09-19T06:47:16;7.25;;;1.23;;
60060;SDS011;45933;51.336;12.612;2023-09-19T06:49:42;1.92;;;1.20;;
60060;SDS011;45933;51.336;12.612;2023-09-19T06:52:10;3.10;;;1.40;;
60060;SDS011;45933;51.336;12.612;2023-09-19T06:54:35;2.80;;;1.30;;
60060;SDS011;45933;51.336;12.612;2023-09-19T06:57:01;3.53;;;1.40;;
60060;SDS011;45933;51.336;12.612;2023-09-19T06:59:26;2.42;;;1.40;;
60060;SDS011;45933;51.336;12.612;2023-09-19T07:01:51;2.50;;;1.10;;
60060;SDS011;45933;51.336;12.612;2023-09-19T07:04:17;2.30;;;1.35;;
60060;SDS011;45933;51.336;12.612;2023-09-19T07:06:44;1.42;;;1.27;;
60060;SDS011;45933;51.336;12.612;2023-09-19T07:09:14;2.00;;;1.15;;
60060;SDS011;45933;51.336;12.612;2023-09-19T07:11:40;2.38;;;1.13;;
60060;SDS011;45933;51.336;12.612;2023-09-19T07:14:05;1.50;;;1.40;;
60060;SDS011;45933;51.336;12.612;2023-09-19T07:16:30;4.70;;;1.90;;
60060;SDS011;45933;51.336;12.612;2023-09-19T07:18:56;1.83;;;1.08;;
60060;SDS011;45933;51.336;12.612;2023-09-19T07:21:21;3.65;;;1.10;;
60060;SDS011;45933;51.336;12.612;2023-09-19T07:23:47;2.13;;;1.27;;
60060;SDS011;45933;51.336;12.612;2023-09-19T07:26:13;7.90;;;1.40;;
60060;SDS011;45933;51.336;12.612;2023-09-19T07:28:38;2.30;;;1.50;;
60060;SDS011;45933;51.336;12.612;2023-09-19T07:31:03;2.20;;;1.15;;
60060;SDS011;45933;51.336;12.612;2023-09-19T07:33:30;3.42;;;1.50;;
60060;SDS011;45933;51.336;12.612;2023-09-19T07:35:55;2.40;;;1.30;;
60060;SDS011;45933;51.336;12.612;2023-09-19T07:38:20;4.45;;;1.30;;
60060;SDS011;45933;51.336;12.612;2023-09-19T07:40:46;2.90;;;1.38;;
60060;SDS011;45933;51.336;12.612;2023-09-19T07:43:11;2.35;;;1.08;;
60060;SDS011;45933;51.336;12.612;2023-09-19T07:45:37;2.40;;;1.23;;
60060;SDS011;45933;51.336;12.612;2023-09-19T07:48:02;3.38;;;1.50;;
60060;SDS011;45933;51.336;12.612;2023-09-19T07:50:29;9.23;;;1.35;;
60060;SDS011;45933;51.336;12.612;2023-09-19T07:52:55;2.53;;;1.20;;
60060;SDS011;45933;51.336;12.612;2023-09-19T07:55:21;3.05;;;1.20;;
60060;SDS011;45933;51.336;12.612;2023-09-19T07:57:51;4.60;;;1.67;;
60060;SDS011;45933;51.336;12.612;2023-09-19T08:00:17;4.65;;;1.50;;
60060;SDS011;45933;51.336;12.612;2023-09-19T08:02:43;3.03;;;1.48;;
60060;SDS011;45933;51.336;12.612;2023-09-19T08:05:09;2.08;;;1.20;;
60060;SDS011;45933;51.336;12.612;2023-09-19T08:07:35;3.45;;;1.30;;
60060;SDS011;45933;51.336;12.612;2023-09-19T08:10:02;2.08;;;1.17;;
60060;SDS011;45933;51.336;12.612;2023-09-19T08:12:28;2.75;;;1.10;;
60060;SDS011;45933;51.336;12.612;2023-09-19T08:14:56;2.58;;;1.10;;
60060;SDS011;45933;51.336;12.612;2023-09-19T08:17:21;2.72;;;1.15;;
60060;SDS011;45933;51.336;12.612;2023-09-19T08:19:49;2.42;;;1.23;;
60060;SDS011;45933;51.336;12.612;2023-09-19T08:22:17;1.98;;;1.10;;
60060;SDS011;45933;51.336;12.612;2023-09-19T08:24:43;5.18;;;1.55;;
60060;SDS011;45933;51.336;12.612;2023-09-19T08:27:09;1.73;;;0.98;;
60060;SDS011;45933;51.336;12.612;2023-09-19T08:29:35;5.85;;;1.10;;
60060;SDS011;45933;51.336;12.612;2023-09-19T08:32:00;1.80;;;0.82;;
60060;SDS011;45933;51.336;12.612;2023-09-19T08:34:26;3.72;;;1.55;;
60060;SDS011;45933;51.336;12.612;2023-09-19T08:36:51;3.13;;;1.00;;
60060;SDS011;45933;51.336;12.612;2023-09-19T08:39:21;1.83;;;1.00;;
60060;SDS011;45933;51.336;12.612;2023-09-19T08:41:47;3.03;;;1.20;;
60060;SDS011;45933;51.336;12.612;2023-09-19T08:44:12;2.85;;;1.13;;
60060;SDS011;45933;51.336;12.612;2023-09-19T08:46:38;3.92;;;1.20;;
60060;SDS011;45933;51.336;12.612;2023-09-19T08:51:53;4.05;;;1.20;;
60060;SDS011;45933;51.336;12.612;2023-09-19T08:54:25;2.88;;;0.98;;
60060;SDS011;45933;51.336;12.612;2023-09-19T08:56:54;3.17;;;1.40;;
60060;SDS011;45933;51.336;12.612;2023-09-19T08:59:22;2.83;;;1.02;;
60060;SDS011;45933;51.336;12.612;2023-09-19T09:01:52;1.70;;;1.20;;
60060;SDS011;45933;51.336;12.612;2023-09-19T09:04:20;3.92;;;1.30;;
60060;SDS011;45933;51.336;12.612;2023-09-19T09:06:47;1.92;;;1.25;;
60060;SDS011;45933;51.336;12.612;2023-09-19T09:09:15;5.15;;;1.13;;
60060;SDS011;45933;51.336;12.612;2023-09-19T09:11:41;2.75;;;1.20;;
60060;SDS011;45933;51.336;12.612;2023-09-19T09:14:07;4.50;;;1.38;;
60060;SDS011;45933;51.336;12.612;2023-09-19T09:16:32;4.22;;;1.10;;
60060;SDS011;45933;51.336;12.612;2023-09-19T09:18:59;4.35;;;1.40;;
60060;SDS011;45933;51.336;12.612;2023-09-19T09:21:25;2.38;;;1.00;;
60060;SDS011;45933;51.336;12.612;2023-09-19T09:23:50;6.93;;;1.50;;
60060;SDS011;45933;51.336;12.612;2023-09-19T09:26:40;4.05;;;1.10;;
60060;SDS011;45933;51.336;12.612;2023-09-19T09:29:12;3.33;;;1.40;;
60060;SDS011;45933;51.336;12.612;2023-09-19T09:31:38;3.50;;;1.30;;
60060;SDS011;45933;51.336;12.612;2023-09-19T09:34:04;1.73;;;1.00;;
60060;SDS011;45933;51.336;12.612;2023-09-19T09:36:37;2.53;;;1.10;;
60060;SDS011;45933;51.336;12.612;2023-09-19T09:39:05;3.45;;;1.10;;
60060;SDS011;45933;51.336;12.612;2023-09-19T09:41:43;3.38;;;1.30;;
60060;SDS011;45933;51.336;12.612;2023-09-19T09:44:14;3.90;;;1.50;;
60060;SDS011;45933;51.336;12.612;2023-09-19T09:46:43;3.40;;;1.40;;
60060;SDS011;45933;51.336;12.612;2023-09-19T09:49:21;3.88;;;1.20;;
60060;SDS011;45933;51.336;12.612;2023-09-19T09:54:30;2.25;;;1.10;;
60060;SDS011;45933;51.336;12.612;2023-09-19T09:57:11;2.38;;;1.30;;
60060;SDS011;45933;51.336;12.612;2023-09-19T09:59:46;3.67;;;1.50;;
60060;SDS011;45933;51.336;12.612;2023-09-19T10:05:03;3.08;;;1.40;;
60060;SDS011;45933;51.336;12.612;2023-09-19T10:07:47;5.38;;;2.60;;
60060;SDS011;45933;51.336;12.612;2023-09-19T10:10:29;5.30;;;2.08;;
60060;SDS011;45933;51.336;12.612;2023-09-19T10:13:03;4.72;;;1.48;;
60060;SDS011;45933;51.336;12.612;2023-09-19T10:15:31;2.95;;;2.00;;
60060;SDS011;45933;51.336;12.612;2023-09-19T10:17:58;4.25;;;1.63;;
60060;SDS011;45933;51.336;12.612;2023-09-19T10:20:29;5.72;;;3.13;;
60060;SDS011;45933;51.336;12.612;2023-09-19T10:22:55;6.57;;;2.30;;
60060;SDS011;45933;51.336;12.612;2023-09-19T10:25:26;7.60;;;3.28;;
60060;SDS011;45933;51.336;12.612;2023-09-19T10:27:55;4.68;;;2.28;;
60060;SDS011;45933;51.336;12.612;2023-09-19T10:30:24;5.40;;;2.17;;
60060;SDS011;45933;51.336;12.612;2023-09-19T10:32:59;8.48;;;3.30;;
60060;SDS011;45933;51.336;12.612;2023-09-19T10:35:28;7.28;;;2.50;;
60060;SDS011;45933;51.336;12.612;2023-09-19T10:37:55;5.07;;;1.80;;
60060;SDS011;45933;51.336;12.612;2023-09-19T10:40:24;4.63;;;2.15;;
60060;SDS011;45933;51.336;12.612;2023-09-19T10:42:58;4.95;;;2.20;;
60060;SDS011;45933;51.336;12.612;2023-09-19T10:45:25;3.72;;;1.85;;
60060;SDS011;45933;51.336;12.612;2023-09-19T10:47:51;2.70;;;1.40;;
60060;SDS011;45933;51.336;12.612;2023-09-19T10:50:20;3.47;;;1.80;;
60060;SDS011;45933;51.336;12.612;2023-09-19T10:52:49;3.20;;;1.55;;
60060;SDS011;45933;51.336;12.612;2023-09-19T10:55:23;2.45;;;1.48;;
60060;SDS011;45933;51.336;12.612;2023-09-19T10:57:50;2.70;;;1.33;;
60060;SDS011;45933;51.336;12.612;2023-09-19T11:00:17;2.17;;;1.40;;
60060;SDS011;45933;51.336;12.612;2023-09-19T11:05:42;3.97;;;2.00;;
60060;SDS011;45933;51.336;12.612;2023-09-19T11:08:07;5.30;;;2.25;;
60060;SDS011;45933;51.336;12.612;2023-09-19T11:10:49;5.82;;;2.70;;
60060;SDS011;45933;51.336;12.612;2023-09-19T11:13:25;4.40;;;1.75;;
60060;SDS011;45933;51.336;12.612;2023-09-19T11:26:47;3.15;;;1.50;;
60060;SDS011;45933;51.336;12.612;2023-09-19T11:31:51;2.35;;;1.38;;
60060;SDS011;45933;51.336;12.612;2023-09-19T11:37:02;3.90;;;1.60;;
60060;SDS011;45933;51.336;12.612;2023-09-19T11:39:40;4.00;;;1.65;;
60060;SDS011;45933;51.336;12.612;2023-09-19T11:42:44;3.72;;;1.38;;
60060;SDS011;45933;51.336;12.612;2023-09-19T11:48:05;2.70;;;1.73;;
60060;SDS011;45933;51.336;12.612;2023-09-19T11:50:32;2.63;;;1.40;;
60060;SDS011;45933;51.336;12.612;2023-09-19T11:53:00;3.47;;;1.50;;
60060;SDS011;45933;51.336;12.612;2023-09-19T11:55:27;3.00;;;1.40;;
60060;SDS011;45933;51.336;12.612;2023-09-19T11:57:57;5.20;;;2.15;;
60060;SDS011;45933;51.336;12.612;2023-09-19T12:00:24;5.18;;;1.90;;
60060;SDS011;45933;51.336;12.612;2023-09-19T12:02:49;3.50;;;1.80;;
60060;SDS011;45933;51.336;12.612;2023-09-19T12:05:27;3.53;;;1.63;;
60060;SDS011;45933;51.336;12.612;2023-09-19T12:07:54;3.92;;;1.88;;
60060;SDS011;45933;51.336;12.612;2023-09-19T12:10:19;4.97;;;1.90;;
60060;SDS011;45933;51.336;12.612;2023-09-19T12:12:47;2.25;;;1.75;;
60060;SDS011;45933;51.336;12.612;2023-09-19T12:15:14;5.90;;;1.67;;
60060;SDS011;45933;51.336;12.612;2023-09-19T12:17:40;4.63;;;1.80;;
60060;SDS011;45933;51.336;12.612;2023-09-19T12:20:08;3.95;;;1.98;;
60060;SDS011;45933;51.336;12.612;2023-09-19T12:25:09;3.83;;;1.48;;
60060;SDS011;45933;51.336;12.612;2023-09-19T12:27:48;4.68;;;1.77;;
60060;SDS011;45933;51.336;12.612;2023-09-19T12:30:18;2.85;;;1.45;;
60060;SDS011;45933;51.336;12.612;2023-09-19T12:32:45;3.80;;;1.80;;
60060;SDS011;45933;51.336;12.612;2023-09-19T12:35:26;3.17;;;1.52;;
60060;SDS011;45933;51.336;12.612;2023-09-19T12:37:55;3.28;;;1.98;;
60060;SDS011;45933;51.336;12.612;2023-09-19T12:40:20;3.05;;;1.98;;
60060;SDS011;45933;51.336;12.612;2023-09-19T12:42:53;5.05;;;1.90;;
60060;SDS011;45933;51.336;12.612;2023-09-19T12:45:27;2.72;;;1.65;;
60060;SDS011;45933;51.336;12.612;2023-09-19T12:53:38;3.80;;;1.90;;
60060;SDS011;45933;51.336;12.612;2023-09-19T12:56:11;2.85;;;1.80;;
60060;SDS011;45933;51.336;12.612;2023-09-19T12:58:51;16.10;;;2.38;;
60060;SDS011;45933;51.336;12.612;2023-09-19T13:01:21;2.75;;;1.77;;
60060;SDS011;45933;51.336;12.612;2023-09-19T13:04:32;2.95;;;1.67;;
60060;SDS011;45933;51.336;12.612;2023-09-19T13:06:46;4.32;;;2.08;;
60060;SDS011;45933;51.336;12.612;2023-09-19T13:09:13;3.05;;;1.92;;
60060;SDS011;45933;51.336;12.612;2023-09-19T13:11:40;3.13;;;1.73;;
60060;SDS011;45933;51.336;12.612;2023-09-19T13:14:19;3.15;;;2.13;;
60060;SDS011;45933;51.336;12.612;2023-09-19T13:16:56;3.90;;;2.10;;
60060;SDS011;45933;51.336;12.612;2023-09-19T13:19:36;3.95;;;2.08;;
60060;SDS011;45933;51.336;12.612;2023-09-19T13:22:04;2.88;;;1.95;;
60060;SDS011;45933;51.336;12.612;2023-09-19T13:24:30;2.97;;;2.17;;
60060;SDS011;45933;51.336;12.612;2023-09-19T13:27:00;2.40;;;1.90;;
60060;SDS011;45933;51.336;12.612;2023-09-19T13:29:25;4.57;;;2.58;;
60060;SDS011;45933;51.336;12.612;2023-09-19T13:31:51;2.88;;;1.70;;
60060;SDS011;45933;51.336;12.612;2023-09-19T13:34:20;2.72;;;2.00;;
60060;SDS011;45933;51.336;12.612;2023-09-19T13:36:46;3.55;;;2.13;;
60060;SDS011;45933;51.336;12.612;2023-09-19T13:39:13;3.10;;;2.42;;
60060;SDS011;45933;51.336;12.612;2023-09-19T13:41:43;2.55;;;1.80;;
60060;SDS011;45933;51.336;12.612;2023-09-19T13:44:11;5.30;;;2.08;;
60060;SDS011;45933;51.336;12.612;2023-09-19T13:46:36;2.85;;;2.10;;
60060;SDS011;45933;51.336;12.612;2023-09-19T13:49:02;3.60;;;2.22;;
60060;SDS011;45933;51.336;12.612;2023-09-19T13:51:30;4.97;;;2.35;;
60060;SDS011;45933;51.336;12.612;2023-09-19T13:53:56;4.40;;;2.33;;
60060;SDS011;45933;51.336;12.612;2023-09-19T13:56:22;3.72;;;2.17;;
60060;SDS011;45933;51.336;12.612;2023-09-19T13:58:47;4.13;;;1.75;;
60060;SDS011;45933;51.336;12.612;2023-09-19T14:01:13;4.88;;;1.95;;
60060;SDS011;45933;51.336;12.612;2023-09-19T14:03:41;2.75;;;2.00;;
60060;SDS011;45933;51.336;12.612;2023-09-19T14:06:11;3.85;;;2.22;;
60060;SDS011;45933;51.336;12.612;2023-09-19T14:08:37;5.20;;;2.45;;
60060;SDS011;45933;51.336;12.612;2023-09-19T14:11:07;3.92;;;2.60;;
60060;SDS011;45933;51.336;12.612;2023-09-19T14:13:33;5.35;;;2.35;;
60060;SDS011;45933;51.336;12.612;2023-09-19T14:16:02;2.83;;;2.00;;
60060;SDS011;45933;51.336;12.612;2023-09-19T14:18:34;4.70;;;2.40;;
60060;SDS011;45933;51.336;12.612;2023-09-19T14:21:06;3.75;;;2.30;;
60060;SDS011;45933;51.336;12.612;2023-09-19T14:23:36;4.65;;;2.30;;
60060;SDS011;45933;51.336;12.612;2023-09-19T14:26:04;9.60;;;2.70;;
60060;SDS011;45933;51.336;12.612;2023-09-19T14:28:33;2.67;;;1.90;;
60060;SDS011;45933;51.336;12.612;2023-09-19T14:31:03;15.57;;;2.70;;
60060;SDS011;45933;51.336;12.612;2023-09-19T14:33:29;10.85;;;3.03;;
60060;SDS011;45933;51.336;12.612;2023-09-19T14:35:56;4.80;;;2.67;;
60060;SDS011;45933;51.336;12.612;2023-09-19T14:38:21;4.55;;;2.38;;
60060;SDS011;45933;51.336;12.612;2023-09-19T14:40:46;5.05;;;2.85;;
60060;SDS011;45933;51.336;12.612;2023-09-19T14:43:15;4.35;;;2.85;;
60060;SDS011;45933;51.336;12.612;2023-09-19T14:45:40;2.67;;;2.28;;
60060;SDS011;45933;51.336;12.612;2023-09-19T14:48:05;5.15;;;2.58;;
60060;SDS011;45933;51.336;12.612;2023-09-19T14:50:31;3.72;;;2.40;;
60060;SDS011;45933;51.336;12.612;2023-09-19T14:52:57;3.88;;;2.05;;
60060;SDS011;45933;51.336;12.612;2023-09-19T14:55:26;4.05;;;2.42;;
60060;SDS011;45933;51.336;12.612;2023-09-19T14:57:54;4.88;;;2.30;;
60060;SDS011;45933;51.336;12.612;2023-09-19T15:00:21;3.78;;;2.08;;
60060;SDS011;45933;51.336;12.612;2023-09-19T15:02:48;7.07;;;3.33;;
60060;SDS011;45933;51.336;12.612;2023-09-19T15:05:15;5.40;;;2.70;;
60060;SDS011;45933;51.336;12.612;2023-09-19T15:07:41;5.78;;;2.33;;
60060;SDS011;45933;51.336;12.612;2023-09-19T15:10:06;4.53;;;2.75;;
60060;SDS011;45933;51.336;12.612;2023-09-19T15:12:34;3.42;;;2.38;;
60060;SDS011;45933;51.336;12.612;2023-09-19T15:15:02;3.42;;;2.60;;
60060;SDS011;45933;51.336;12.612;2023-09-19T15:17:30;3.70;;;2.30;;
60060;SDS011;45933;51.336;12.612;2023-09-19T15:19:55;4.03;;;2.20;;
60060;SDS011;45933;51.336;12.612;2023-09-19T15:22:21;4.55;;;2.38;;
60060;SDS011;45933;51.336;12.612;2023-09-19T15:24:47;3.83;;;2.60;;
60060;SDS011;45933;51.336;12.612;2023-09-19T15:27:12;4.07;;;2.78;;
60060;SDS011;45933;51.336;12.612;2023-09-19T15:29:38;5.30;;;2.72;;
60060;SDS011;45933;51.336;12.612;2023-09-19T15:32:04;6.88;;;2.40;;
60060;SDS011;45933;51.336;12.612;2023-09-19T15:34:29;3.63;;;2.55;;
60060;SDS011;45933;51.336;12.612;2023-09-19T15:36:54;4.13;;;2.75;;